sensor_id;sensor_type;location;lat;lon;timestamp;pressure;altitude;pressure_sealevel;temperature;humidity
56414;BME280;42318;48.452;19.526;2023-03-18T00:04:25;98774.63;;;19.29;45.00
56414;BME280;42318;48.452;19.526;2023-03-18T00:11:56;98757.84;;;19.32;44.86
56414;BME280;42318;48.452;19.526;2023-03-18T00:19:27;98763.28;;;19.32;45.10
56414;BME280;42318;48.452;19.526;2023-03-18T00:26:59;98758.81;;;19.26;44.94
56414;BME280;42318;48.452;19.526;2023-03-18T00:34:29;98753.16;;;19.27;44.60
56414;BME280;42318;48.452;19.526;2023-03-18T00:42:00;98749.59;;;19.27;44.84
56414;BME280;42318;48.452;19.526;2023-03-18T00:49:39;98745.75;;;19.23;45.09
56414;BME280;42318;48.452;19.526;2023-03-18T00:57:11;98742.53;;;19.26;44.72
56414;BME280;42318;48.452;19.526;2023-03-18T01:04:42;98730.59;;;19.27;44.84
56414;BME280;42318;48.452;19.526;2023-03-18T01:12:14;98718.66;;;19.28;44.56
56414;BME280;42318;48.452;19.526;2023-03-18T01:19:45;98711.56;;;19.27;44.70
56414;BME280;42318;48.452;19.526;2023-03-18T01:27:17;98705.16;;;19.33;44.79
56414;BME280;42318;48.452;19.526;2023-03-18T01:34:48;98690.66;;;19.27;44.61
56414;BME280;42318;48.452;19.526;2023-03-18T01:42:19;98683.91;;;19.30;44.62
56414;BME280;42318;48.452;19.526;2023-03-18T01:49:51;98677.25;;;19.21;44.66
56414;BME280;42318;48.452;19.526;2023-03-18T01:57:22;98683.34;;;19.11;44.95
56414;BME280;42318;48.452;19.526;2023-03-18T02:04:55;98684.00;;;19.18;44.87
56414;BME280;42318;48.452;19.526;2023-03-18T02:12:30;98683.84;;;19.25;44.62
56414;BME280;42318;48.452;19.526;2023-03-18T02:20:23;98677.31;;;19.26;44.42
56414;BME280;42318;48.452;19.526;2023-03-18T02:28:03;98681.13;;;19.25;44.57
56414;BME280;42318;48.452;19.526;2023-03-18T02:35:37;98675.69;;;19.25;44.65
56414;BME280;42318;48.452;19.526;2023-03-18T02:43:22;98675.69;;;19.25;44.62
56414;BME280;42318;48.452;19.526;2023-03-18T02:50:54;98663.75;;;19.26;44.54
56414;BME280;42318;48.452;19.526;2023-03-18T02:58:27;98670.25;;;19.25;44.48
56414;BME280;42318;48.452;19.526;2023-03-18T03:05:58;98680.28;;;19.24;44.71
56414;BME280;42318;48.452;19.526;2023-03-18T03:13:29;98674.63;;;19.26;44.57
56414;BME280;42318;48.452;19.526;2023-03-18T03:21:00;98678.16;;;19.26;44.46
56414;BME280;42318;48.452;19.526;2023-03-18T03:28:31;98683.75;;;19.20;44.54
56414;BME280;42318;48.452;19.526;2023-03-18T03:36:02;98694.69;;;19.25;44.37
56414;BME280;42318;48.452;19.526;2023-03-18T03:43:33;98693.28;;;19.22;44.60
56414;BME280;42318;48.452;19.526;2023-03-18T03:51:05;98708.78;;;19.22;44.66
56414;BME280;42318;48.452;19.526;2023-03-18T03:58:36;98718.25;;;19.19;44.40
56414;BME280;42318;48.452;19.526;2023-03-18T04:06:07;98711.41;;;19.17;44.33
56414;BME280;42318;48.452;19.526;2023-03-18T04:13:38;98720.38;;;19.17;44.77
56414;BME280;42318;48.452;19.526;2023-03-18T04:21:09;98718.25;;;19.19;44.66
56414;BME280;42318;48.452;19.526;2023-03-18T04:28:39;98730.59;;;19.27;44.85
56414;BME280;42318;48.452;19.526;2023-03-18T04:36:10;98731.66;;;19.26;45.12
56414;BME280;42318;48.452;19.526;2023-03-18T04:43:41;98740.53;;;19.21;45.30
56414;BME280;42318;48.452;19.526;2023-03-18T04:51:13;98746.81;;;19.22;45.00
56414;BME280;42318;48.452;19.526;2023-03-18T04:58:44;98750.00;;;19.19;45.04
56414;BME280;42318;48.452;19.526;2023-03-18T05:06:24;98752.16;;;19.17;44.88
56414;BME280;42318;48.452;19.526;2023-03-18T05:13:56;98754.31;;;19.03;45.18
56414;BME280;42318;48.452;19.526;2023-03-18T05:21:27;98757.84;;;18.75;46.24
56414;BME280;42318;48.452;19.526;2023-03-18T05:28:58;98775.41;;;18.61;46.34
56414;BME280;42318;48.452;19.526;2023-03-18T05:36:29;98772.84;;;18.54;46.53
56414;BME280;42318;48.452;19.526;2023-03-18T05:44:00;98777.91;;;18.50;46.50
56414;BME280;42318;48.452;19.526;2023-03-18T05:51:31;98777.56;;;18.47;46.39
56414;BME280;42318;48.452;19.526;2023-03-18T05:59:02;98784.31;;;18.44;46.61
56414;BME280;42318;48.452;19.526;2023-03-18T06:06:34;98788.56;;;18.40;46.50
56414;BME280;42318;48.452;19.526;2023-03-18T06:14:07;98786.31;;;18.37;46.41
56414;BME280;42318;48.452;19.526;2023-03-18T06:21:39;98790.09;;;18.36;46.67
56414;BME280;42318;48.452;19.526;2023-03-18T06:29:09;98802.00;;;18.35;46.43
56414;BME280;42318;48.452;19.526;2023-03-18T06:36:41;98795.75;;;18.35;46.61
56414;BME280;42318;48.452;19.526;2023-03-18T06:44:12;98793.19;;;18.28;46.53
56414;BME280;42318;48.452;19.526;2023-03-18T06:51:43;98810.16;;;18.35;46.49
56414;BME280;42318;48.452;19.526;2023-03-18T06:59:13;98815.56;;;18.35;46.19
56414;BME280;42318;48.452;19.526;2023-03-18T07:06:45;98820.28;;;18.40;46.17
56414;BME280;42318;48.452;19.526;2023-03-18T07:14:15;98823.25;;;18.38;46.37
56414;BME280;42318;48.452;19.526;2023-03-18T07:21:46;98836.81;;;18.38;46.25
56414;BME280;42318;48.452;19.526;2023-03-18T07:29:18;98849.19;;;18.34;46.28
56414;BME280;42318;48.452;19.526;2023-03-18T07:36:49;98843.78;;;18.34;46.46
56414;BME280;42318;48.452;19.526;2023-03-18T07:44:19;98841.06;;;18.34;46.32
56414;BME280;42318;48.452;19.526;2023-03-18T07:51:50;98845.53;;;18.40;46.27
56414;BME280;42318;48.452;19.526;2023-03-18T07:59:21;98838.94;;;18.36;46.24
56414;BME280;42318;48.452;19.526;2023-03-18T08:06:53;98835.38;;;18.36;46.24
56414;BME280;42318;48.452;19.526;2023-03-18T08:14:24;98843.19;;;18.32;46.46
56414;BME280;42318;48.452;19.526;2023-03-18T08:21:55;98838.22;;;18.29;46.36
56414;BME280;42318;48.452;19.526;2023-03-18T08:29:27;98835.75;;;18.28;46.62
56414;BME280;42318;48.452;19.526;2023-03-18T08:36:58;98834.09;;;18.27;46.70
56414;BME280;42318;48.452;19.526;2023-03-18T08:44:29;98834.44;;;18.30;47.10
56414;BME280;42318;48.452;19.526;2023-03-18T08:52:01;98835.88;;;18.33;47.12
56414;BME280;42318;48.452;19.526;2023-03-18T08:59:32;98827.50;;;18.34;47.26
56414;BME280;42318;48.452;19.526;2023-03-18T09:07:03;98815.00;;;18.33;47.14
56414;BME280;42318;48.452;19.526;2023-03-18T09:14:34;98823.13;;;18.45;47.00
56414;BME280;42318;48.452;19.526;2023-03-18T09:22:06;98809.88;;;18.60;46.71
56414;BME280;42318;48.452;19.526;2023-03-18T09:29:38;98808.22;;;18.82;46.10
56414;BME280;42318;48.452;19.526;2023-03-18T09:37:09;98807.03;;;18.90;46.08
56414;BME280;42318;48.452;19.526;2023-03-18T09:44:41;98795.03;;;19.03;46.20
56414;BME280;42318;48.452;19.526;2023-03-18T09:52:30;98793.41;;;19.02;46.20
56414;BME280;42318;48.452;19.526;2023-03-18T10:00:17;98779.88;;;19.19;45.76
56414;BME280;42318;48.452;19.526;2023-03-18T10:07:53;98779.47;;;19.10;46.04
56414;BME280;42318;48.452;19.526;2023-03-18T10:15:27;98772.25;;;19.04;46.31
56414;BME280;42318;48.452;19.526;2023-03-18T10:23:30;98772.16;;;18.99;46.50
56414;BME280;42318;48.452;19.526;2023-03-18T10:31:17;98764.84;;;18.99;46.73
56414;BME280;42318;48.452;19.526;2023-03-18T10:38:52;98757.66;;;19.22;46.31
56414;BME280;42318;48.452;19.526;2023-03-18T10:46:24;98760.72;;;19.25;46.07
56414;BME280;42318;48.452;19.526;2023-03-18T11:01:49;98740.56;;;19.38;45.76
56414;BME280;42318;48.452;19.526;2023-03-18T11:09:29;98744.34;;;19.20;45.98
56414;BME280;42318;48.452;19.526;2023-03-18T11:17:02;98726.72;;;19.23;46.04
56414;BME280;42318;48.452;19.526;2023-03-18T11:24:36;98720.78;;;19.09;46.47
56414;BME280;42318;48.452;19.526;2023-03-18T11:32:33;98718.00;;;18.92;46.79
56414;BME280;42318;48.452;19.526;2023-03-18T11:40:16;98697.00;;;18.88;46.75
56414;BME280;42318;48.452;19.526;2023-03-18T11:47:48;98700.22;;;18.85;46.84
56414;BME280;42318;48.452;19.526;2023-03-18T11:55:42;98695.38;;;18.87;47.13
56414;BME280;42318;48.452;19.526;2023-03-18T12:26:46;98660.66;;;18.89;46.97
56414;BME280;42318;48.452;19.526;2023-03-18T12:42:10;98653.09;;;18.91;47.02
56414;BME280;42318;48.452;19.526;2023-03-18T12:49:49;98648.47;;;18.91;46.93
56414;BME280;42318;48.452;19.526;2023-03-18T13:05:44;98657.19;;;18.93;46.99
56414;BME280;42318;48.452;19.526;2023-03-18T13:13:17;98648.22;;;18.93;46.96
56414;BME280;42318;48.452;19.526;2023-03-18T13:20:51;98642.78;;;18.93;47.00
56414;BME280;42318;48.452;19.526;2023-03-18T13:28:37;98640.91;;;18.93;46.87
56414;BME280;42318;48.452;19.526;2023-03-18T13:43:55;98620.50;;;18.91;47.24
56414;BME280;42318;48.452;19.526;2023-03-18T13:59:02;98612.44;;;18.96;47.28
56414;BME280;42318;48.452;19.526;2023-03-18T14:14:39;98596.22;;;19.01;48.32
56414;BME280;42318;48.452;19.526;2023-03-18T14:22:24;98595.97;;;19.02;48.67
56414;BME280;42318;48.452;19.526;2023-03-18T14:38:14;98588.81;;;18.96;48.93
56414;BME280;42318;48.452;19.526;2023-03-18T14:45:49;98582.81;;;18.94;49.07
56414;BME280;42318;48.452;19.526;2023-03-18T14:53:31;98583.31;;;18.91;49.06
56414;BME280;42318;48.452;19.526;2023-03-18T15:01:05;98573.28;;;18.92;48.83
56414;BME280;42318;48.452;19.526;2023-03-18T15:08:47;98571.13;;;18.94;49.00
56414;BME280;42318;48.452;19.526;2023-03-18T15:16:22;98557.31;;;18.95;48.78
56414;BME280;42318;48.452;19.526;2023-03-18T15:23:56;98556.25;;;18.96;48.67
56414;BME280;42318;48.452;19.526;2023-03-18T15:31:30;98555.25;;;19.02;48.47
56414;BME280;42318;48.452;19.526;2023-03-18T15:39:18;98549.06;;;19.07;48.55
56414;BME280;42318;48.452;19.526;2023-03-18T15:46:49;98562.44;;;19.08;48.40
56414;BME280;42318;48.452;19.526;2023-03-18T15:54:25;98577.41;;;19.11;47.99
56414;BME280;42318;48.452;19.526;2023-03-18T16:01:58;98571.03;;;19.05;48.31
56414;BME280;42318;48.452;19.526;2023-03-18T16:09:29;98576.91;;;19.14;47.97
56414;BME280;42318;48.452;19.526;2023-03-18T16:17:00;98592.03;;;19.27;47.83
56414;BME280;42318;48.452;19.526;2023-03-18T16:24:32;98598.06;;;19.12;47.77
56414;BME280;42318;48.452;19.526;2023-03-18T16:32:03;98608.94;;;19.12;48.09
56414;BME280;42318;48.452;19.526;2023-03-18T16:39:34;98608.09;;;19.11;48.08
56414;BME280;42318;48.452;19.526;2023-03-18T16:47:05;98606.47;;;19.10;48.11
56414;BME280;42318;48.452;19.526;2023-03-18T16:54:39;98610.00;;;19.11;47.99
56414;BME280;42318;48.452;19.526;2023-03-18T17:02:32;98610.00;;;19.11;47.89
56414;BME280;42318;48.452;19.526;2023-03-18T17:10:04;98617.31;;;19.10;47.94
56414;BME280;42318;48.452;19.526;2023-03-18T17:17:35;98629.84;;;19.11;47.75
56414;BME280;42318;48.452;19.526;2023-03-18T17:25:08;98629.59;;;19.13;47.97
56414;BME280;42318;48.452;19.526;2023-03-18T17:32:40;98645.38;;;19.16;47.81
56414;BME280;42318;48.452;19.526;2023-03-18T17:40:13;98643.75;;;19.15;47.64
56414;BME280;42318;48.452;19.526;2023-03-18T17:47:44;98644.81;;;19.14;47.87
56414;BME280;42318;48.452;19.526;2023-03-18T17:55:21;98646.72;;;19.13;47.72
56414;BME280;42318;48.452;19.526;2023-03-18T18:02:52;98656.41;;;19.09;47.71
56414;BME280;42318;48.452;19.526;2023-03-18T18:10:24;98653.25;;;19.01;47.80
56414;BME280;42318;48.452;19.526;2023-03-18T18:17:55;98650.03;;;19.04;47.57
56414;BME280;42318;48.452;19.526;2023-03-18T18:25:27;98648.97;;;19.05;47.71
56414;BME280;42318;48.452;19.526;2023-03-18T18:32:59;98668.28;;;19.20;47.25
56414;BME280;42318;48.452;19.526;2023-03-18T18:40:30;98666.06;;;19.34;46.53
56414;BME280;42318;48.452;19.526;2023-03-18T18:48:18;98675.34;;;19.38;46.94
56414;BME280;42318;48.452;19.526;2023-03-18T18:55:51;98675.94;;;19.23;47.23
56414;BME280;42318;48.452;19.526;2023-03-18T19:03:27;98679.78;;;19.10;47.51
56414;BME280;42318;48.452;19.526;2023-03-18T19:11:01;98682.88;;;19.02;47.68
56414;BME280;42318;48.452;19.526;2023-03-18T19:18:37;98673.00;;;18.96;47.76
56414;BME280;42318;48.452;19.526;2023-03-18T19:26:12;98679.75;;;18.94;47.99
56414;BME280;42318;48.452;19.526;2023-03-18T19:33:44;98675.22;;;18.99;47.70
56414;BME280;42318;48.452;19.526;2023-03-18T19:41:20;98675.03;;;19.18;47.20
56414;BME280;42318;48.452;19.526;2023-03-18T19:48:51;98674.69;;;19.31;46.71
56414;BME280;42318;48.452;19.526;2023-03-18T19:56:26;98673.22;;;19.40;46.57
56414;BME280;42318;48.452;19.526;2023-03-18T20:03:58;98677.66;;;19.29;46.42
56414;BME280;42318;48.452;19.526;2023-03-18T20:11:29;98676.13;;;19.05;47.02
56414;BME280;42318;48.452;19.526;2023-03-18T20:18:59;98688.75;;;19.11;47.09
56414;BME280;42318;48.452;19.526;2023-03-18T20:26:30;98685.06;;;19.34;46.39
56414;BME280;42318;48.452;19.526;2023-03-18T20:34:01;98677.56;;;19.41;46.46
56414;BME280;42318;48.452;19.526;2023-03-18T20:41:36;98675.50;;;19.48;46.15
56414;BME280;42318;48.452;19.526;2023-03-18T20:49:07;98680.84;;;19.55;45.84
56414;BME280;42318;48.452;19.526;2023-03-18T20:56:38;98684.47;;;19.49;46.35
56414;BME280;42318;48.452;19.526;2023-03-18T21:04:10;98685.81;;;19.46;46.35
56414;BME280;42318;48.452;19.526;2023-03-18T21:11:42;98688.69;;;19.39;46.21
56414;BME280;42318;48.452;19.526;2023-03-18T21:19:12;98688.53;;;19.12;46.97
56414;BME280;42318;48.452;19.526;2023-03-18T21:26:43;98692.88;;;19.13;46.99
56414;BME280;42318;48.452;19.526;2023-03-18T21:34:16;98690.41;;;19.29;46.18
56414;BME280;42318;48.452;19.526;2023-03-18T21:41:47;98684.16;;;19.45;46.18
56414;BME280;42318;48.452;19.526;2023-03-18T21:49:17;98691.56;;;19.50;45.86
56414;BME280;42318;48.452;19.526;2023-03-18T21:56:48;98686.97;;;19.50;45.85
56414;BME280;42318;48.452;19.526;2023-03-18T22:04:19;98690.16;;;19.47;46.05
56414;BME280;42318;48.452;19.526;2023-03-18T22:11:50;98692.16;;;19.52;45.95
56414;BME280;42318;48.452;19.526;2023-03-18T22:19:21;98682.25;;;19.45;46.28
56414;BME280;42318;48.452;19.526;2023-03-18T22:26:52;98689.09;;;19.48;45.73
56414;BME280;42318;48.452;19.526;2023-03-18T22:34:23;98684.97;;;19.45;45.81
56414;BME280;42318;48.452;19.526;2023-03-18T22:41:54;98679.41;;;19.52;45.61
56414;BME280;42318;48.452;19.526;2023-03-18T22:49:24;98682.22;;;19.57;45.79
56414;BME280;42318;48.452;19.526;2023-03-18T22:56:55;98695.50;;;19.54;45.68
56414;BME280;42318;48.452;19.526;2023-03-18T23:04:26;98700.09;;;19.53;45.99
56414;BME280;42318;48.452;19.526;2023-03-18T23:11:59;98691.72;;;19.55;45.58
56414;BME280;42318;48.452;19.526;2023-03-18T23:19:30;98701.50;;;19.56;45.68
56414;BME280;42318;48.452;19.526;2023-03-18T23:27:01;98699.88;;;19.43;45.97
56414;BME280;42318;48.452;19.526;2023-03-18T23:34:31;98709.09;;;19.08;46.89
56414;BME280;42318;48.452;19.526;2023-03-18T23:42:02;98703.44;;;18.98;47.24
56414;BME280;42318;48.452;19.526;2023-03-18T23:49:34;98708.22;;;18.91;47.62
56414;BME280;42318;48.452;19.526;2023-03-18T23:57:06;98702.38;;;18.99;47.25
